createdAt,value
2023-11-22T00:02:09.068Z,6.16
2023-11-22T00:04:37.290Z,5.99
2023-11-22T00:07:05.327Z,6.27
2023-11-22T00:09:33.924Z,6.31
2023-11-22T00:12:01.886Z,6.08
2023-11-22T00:14:29.816Z,6.12
2023-11-22T00:16:58.489Z,6.09
2023-11-22T00:19:26.482Z,6.09
2023-11-22T00:21:54.420Z,6.04
2023-11-22T00:24:22.448Z,6.03
2023-11-22T00:26:50.676Z,6.11
2023-11-22T00:29:19.174Z,6.13
2023-11-22T00:31:47.135Z,6.18
2023-11-22T00:34:18.195Z,6.13
2023-11-22T00:36:46.884Z,6.30
2023-11-22T00:39:14.778Z,6.39
2023-11-22T00:41:42.787Z,6.60
2023-11-22T00:44:10.684Z,6.54
2023-11-22T00:46:39.527Z,6.15
2023-11-22T00:49:09.564Z,6.02
2023-11-22T00:51:37.730Z,6.06
2023-11-22T00:54:05.960Z,6.16
2023-11-22T00:56:34.195Z,6.54
2023-11-22T00:59:05.201Z,6.08
2023-11-22T01:01:33.741Z,6.21
2023-11-22T01:04:01.952Z,6.19
2023-11-22T01:06:30.234Z,6.12
2023-11-22T01:08:58.056Z,5.93
2023-11-22T01:11:26.104Z,5.80
2023-11-22T01:13:54.522Z,5.84
2023-11-22T01:16:22.719Z,5.85
2023-11-22T01:18:51.282Z,5.94
2023-11-22T01:21:19.192Z,5.95
2023-11-22T01:23:47.689Z,5.58
2023-11-22T01:26:16.831Z,5.69
2023-11-22T01:28:45.490Z,5.67
2023-11-22T01:31:15.377Z,4.71
2023-11-22T01:33:43.266Z,5.16
2023-11-22T01:36:11.228Z,5.25
2023-11-22T01:38:40.750Z,5.33
2023-11-22T01:41:08.960Z,5.26
2023-11-22T01:43:37.629Z,5.21
2023-11-22T01:46:05.912Z,5.31
2023-11-22T01:48:34.761Z,5.34
2023-11-22T01:51:04.100Z,5.34
2023-11-22T01:53:34.268Z,5.41
2023-11-22T01:56:04.395Z,5.35
2023-11-22T01:58:32.421Z,5.26
2023-11-22T02:01:01.892Z,5.18
2023-11-22T02:03:30.524Z,5.43
2023-11-22T02:05:58.997Z,5.32
2023-11-22T02:08:26.868Z,5.45
2023-11-22T02:11:03.753Z,5.57
2023-11-22T02:13:33.323Z,5.52
2023-11-22T02:16:02.842Z,5.47
2023-11-22T02:18:31.854Z,5.59
2023-11-22T02:20:59.781Z,5.86
2023-11-22T02:23:28.006Z,6.15
2023-11-22T02:25:56.010Z,6.11
2023-11-22T02:28:24.514Z,6.24
2023-11-22T02:30:53.057Z,6.02
2023-11-22T02:33:21.371Z,6.02
2023-11-22T02:35:49.302Z,6.20
2023-11-22T02:38:19.632Z,6.06
2023-11-22T02:40:47.722Z,6.49
2023-11-22T02:43:15.998Z,6.17
2023-11-22T02:45:45.699Z,6.33
2023-11-22T02:48:14.670Z,6.33
2023-11-22T02:50:44.811Z,6.38
2023-11-22T02:53:13.836Z,6.01
2023-11-22T02:55:42.028Z,6.31
2023-11-22T02:58:09.974Z,6.37
2023-11-22T03:00:38.316Z,6.63
2023-11-22T03:03:11.119Z,6.85
2023-11-22T03:05:39.362Z,6.79
2023-11-22T03:08:08.373Z,6.95
2023-11-22T03:10:36.914Z,6.59
2023-11-22T03:13:05.465Z,6.64
2023-11-22T03:15:33.807Z,6.83
2023-11-22T03:18:02.602Z,6.47
2023-11-22T03:20:32.188Z,6.45
2023-11-22T03:23:01.175Z,6.84
2023-11-22T03:25:30.820Z,6.61
2023-11-22T03:27:59.065Z,6.73
2023-11-22T03:30:27.070Z,6.88
2023-11-22T03:32:55.680Z,6.93
2023-11-22T03:35:24.154Z,6.97
2023-11-22T03:37:52.097Z,7.02
2023-11-22T03:40:21.134Z,7.09
2023-11-22T03:42:49.163Z,6.88
2023-11-22T03:45:17.142Z,6.79
2023-11-22T03:47:45.625Z,6.69
2023-11-22T03:50:15.994Z,6.59
2023-11-22T03:52:44.055Z,6.49
2023-11-22T03:55:11.996Z,6.14
2023-11-22T03:57:39.984Z,5.77
2023-11-22T04:00:10.793Z,5.54
2023-11-22T04:02:43.128Z,5.53
2023-11-22T04:05:13.343Z,5.51
2023-11-22T04:07:41.277Z,5.89
2023-11-22T04:10:09.605Z,5.93
2023-11-22T04:12:38.466Z,5.82
2023-11-22T04:15:10.128Z,5.37
2023-11-22T04:17:39.512Z,5.61
2023-11-22T04:20:11.141Z,5.34
2023-11-22T04:22:39.620Z,5.45
2023-11-22T04:25:09.733Z,5.83
2023-11-22T04:27:38.169Z,6.06
2023-11-22T04:30:14.945Z,6.06
2023-11-22T04:32:44.013Z,5.47
2023-11-22T04:35:12.875Z,5.45
2023-11-22T04:37:40.997Z,5.77
2023-11-22T04:40:09.898Z,6.00
2023-11-22T04:42:38.489Z,6.07
2023-11-22T04:45:07.007Z,5.95
2023-11-22T04:47:36.057Z,5.87
2023-11-22T04:50:04.162Z,5.75
2023-11-22T04:52:33.270Z,5.38
2023-11-22T04:55:01.351Z,5.55
2023-11-22T04:57:29.471Z,5.77
2023-11-22T04:59:57.334Z,5.63
2023-11-22T05:02:28.008Z,5.54
2023-11-22T05:04:56.045Z,5.58
2023-11-22T05:07:23.900Z,5.57
2023-11-22T05:09:51.924Z,5.20
2023-11-22T05:12:20.075Z,5.40
2023-11-22T05:14:48.050Z,6.18
2023-11-22T05:17:15.981Z,6.18
2023-11-22T05:19:43.960Z,5.84
2023-11-22T05:22:11.941Z,5.88
2023-11-22T05:24:42.184Z,6.05
2023-11-22T05:27:11.068Z,5.56
2023-11-22T05:29:43.549Z,5.97
2023-11-22T05:32:19.238Z,6.15
2023-11-22T05:34:47.348Z,6.13
2023-11-22T05:37:15.295Z,6.25
2023-11-22T05:39:43.267Z,6.49
2023-11-22T05:42:11.278Z,6.78
2023-11-22T05:44:39.509Z,6.79
2023-11-22T05:47:08.912Z,6.65
2023-11-22T05:49:37.362Z,6.70
2023-11-22T05:52:05.813Z,6.76
2023-11-22T05:54:33.772Z,6.77
2023-11-22T05:57:01.879Z,6.86
2023-11-22T05:59:29.944Z,6.85
2023-11-22T06:01:57.864Z,7.10
2023-11-22T06:04:25.890Z,7.18
2023-11-22T06:06:54.129Z,7.26
2023-11-22T06:09:24.213Z,7.31
2023-11-22T06:11:52.193Z,7.14
2023-11-22T06:14:21.340Z,7.07
2023-11-22T06:16:49.398Z,6.94
2023-11-22T06:19:17.255Z,6.88
2023-11-22T06:21:45.243Z,7.15
2023-11-22T06:24:17.054Z,7.23
2023-11-22T06:26:47.554Z,7.34
2023-11-22T06:29:16.096Z,7.19
2023-11-22T06:31:44.394Z,7.20
2023-11-22T06:34:12.576Z,7.19
2023-11-22T06:36:40.626Z,7.12
2023-11-22T06:39:10.307Z,7.06
2023-11-22T06:41:38.554Z,7.10
2023-11-22T06:44:06.862Z,7.20
2023-11-22T06:46:34.803Z,7.18
2023-11-22T06:49:02.768Z,7.25
2023-11-22T06:51:30.765Z,7.16
2023-11-22T06:53:59.087Z,7.23
2023-11-22T06:56:27.411Z,7.15
2023-11-22T06:58:55.381Z,6.84
2023-11-22T07:01:26.852Z,7.09
2023-11-22T07:03:55.474Z,7.01
2023-11-22T07:06:23.782Z,7.17
2023-11-22T07:08:51.954Z,7.12
2023-11-22T07:11:27.359Z,7.25
2023-11-22T07:13:55.856Z,7.22
2023-11-22T07:16:23.776Z,7.15
2023-11-22T07:18:51.779Z,7.25
2023-11-22T07:21:20.628Z,7.29
2023-11-22T07:23:50.868Z,7.06
2023-11-22T07:26:20.887Z,7.07
2023-11-22T07:28:49.366Z,7.13
2023-11-22T07:31:18.036Z,7.30
2023-11-22T07:33:46.071Z,7.38
2023-11-22T07:36:15.710Z,7.45
2023-11-22T07:38:44.520Z,7.52
2023-11-22T07:41:13.165Z,7.29
2023-11-22T07:43:41.137Z,7.41
2023-11-22T07:46:13.838Z,7.52
2023-11-22T07:48:43.145Z,7.44
2023-11-22T07:51:11.276Z,7.52
2023-11-22T07:53:40.743Z,7.49
2023-11-22T07:56:09.731Z,7.46
2023-11-22T07:58:37.984Z,7.56
2023-11-22T08:01:07.490Z,7.55
2023-11-22T08:03:36.313Z,7.72
2023-11-22T08:06:06.361Z,7.68
2023-11-22T08:08:36.109Z,7.74
2023-11-22T08:11:04.528Z,7.59
2023-11-22T08:13:33.085Z,7.66
2023-11-22T08:16:01.107Z,7.62
2023-11-22T08:18:29.201Z,7.74
2023-11-22T08:20:57.713Z,7.81
2023-11-22T08:23:28.277Z,7.80
2023-11-22T08:25:58.178Z,7.82
2023-11-22T08:28:27.083Z,7.84
2023-11-22T08:30:55.521Z,7.86
2023-11-22T08:33:23.824Z,7.80
2023-11-22T08:35:59.346Z,7.93
2023-11-22T08:38:27.655Z,7.87
2023-11-22T08:40:56.382Z,7.95
2023-11-22T08:43:27.035Z,7.91
2023-11-22T08:46:05.047Z,8.02
2023-11-22T08:48:42.087Z,8.00
2023-11-22T08:51:11.513Z,8.01
2023-11-22T08:53:39.846Z,8.12
2023-11-22T08:56:10.695Z,8.23
2023-11-22T08:58:41.145Z,8.26
2023-11-22T09:01:09.738Z,8.34
2023-11-22T09:03:38.040Z,8.21
2023-11-22T09:06:08.460Z,8.57
2023-11-22T09:08:37.016Z,8.48
2023-11-22T09:11:07.871Z,8.60
2023-11-22T09:13:36.380Z,8.62
2023-11-22T09:16:06.539Z,8.66
2023-11-22T09:18:35.235Z,8.65
2023-11-22T09:21:03.520Z,8.78
2023-11-22T09:23:31.753Z,8.78
2023-11-22T09:26:01.695Z,8.67
2023-11-22T09:28:29.747Z,8.80
2023-11-22T09:31:07.474Z,8.72
2023-11-22T09:33:35.760Z,8.86
2023-11-22T09:36:08.095Z,8.96
2023-11-22T09:38:38.990Z,9.07
2023-11-22T09:41:09.091Z,9.16
2023-11-22T09:43:37.262Z,9.13
2023-11-22T09:46:10.245Z,9.12
2023-11-22T09:48:39.096Z,9.32
2023-11-22T09:51:15.196Z,9.45
2023-11-22T09:54:00.093Z,9.37
2023-11-22T09:56:29.582Z,9.26
2023-11-22T09:59:01.550Z,9.30
2023-11-22T10:01:32.197Z,9.36
2023-11-22T10:04:01.820Z,9.46
2023-11-22T10:06:34.561Z,9.38
2023-11-22T10:09:10.193Z,9.50
2023-11-22T10:11:40.359Z,9.53
2023-11-22T10:14:09.998Z,9.62
2023-11-22T10:16:37.962Z,9.66
2023-11-22T10:19:08.433Z,9.59
2023-11-22T10:21:36.623Z,9.62
2023-11-22T10:24:10.667Z,9.62
2023-11-22T10:26:39.733Z,9.70
2023-11-22T10:29:09.613Z,9.87
2023-11-22T10:31:38.212Z,9.92
2023-11-22T10:34:06.103Z,9.86
2023-11-22T10:36:39.602Z,9.99
2023-11-22T10:39:16.776Z,9.92
2023-11-22T10:41:45.183Z,9.89
2023-11-22T10:44:13.083Z,10.18
2023-11-22T10:46:42.543Z,10.14
2023-11-22T10:49:13.175Z,9.92
2023-11-22T10:51:43.268Z,9.94
2023-11-22T10:54:11.856Z,9.87
2023-11-22T10:56:42.615Z,9.96
2023-11-22T10:59:16.478Z,9.99
2023-11-22T11:01:50.376Z,9.90
2023-11-22T11:04:23.825Z,9.84
2023-11-22T11:06:56.717Z,10.02
2023-11-22T11:09:28.303Z,10.34
2023-11-22T11:11:58.312Z,10.79
2023-11-22T11:14:27.657Z,11.68
2023-11-22T11:16:59.614Z,11.63
2023-11-22T11:19:28.669Z,11.44
2023-11-22T11:21:59.593Z,11.43
2023-11-22T11:24:27.773Z,11.19
2023-11-22T11:26:55.979Z,11.08
2023-11-22T11:29:35.160Z,11.17
2023-11-22T11:32:05.656Z,11.30
2023-11-22T11:34:34.079Z,11.40
2023-11-22T11:37:02.597Z,11.63
2023-11-22T11:39:54.673Z,11.33
2023-11-22T11:42:24.750Z,11.52
2023-11-22T11:45:07.938Z,11.58
2023-11-22T11:47:36.566Z,11.68
2023-11-22T11:50:05.689Z,11.08
2023-11-22T11:52:33.864Z,11.58
2023-11-22T11:55:02.077Z,11.96
2023-11-22T11:57:33.776Z,11.89
2023-11-22T12:00:02.174Z,12.08
2023-11-22T12:02:39.730Z,12.34
2023-11-22T12:05:10.704Z,11.98
2023-11-22T12:07:39.559Z,11.77
2023-11-22T12:10:08.399Z,11.97
2023-11-22T12:12:36.921Z,12.25
2023-11-22T12:15:07.440Z,12.15
2023-11-22T12:17:35.606Z,12.48
2023-11-22T12:20:16.069Z,12.30
2023-11-22T12:22:46.331Z,12.28
2023-11-22T12:25:14.626Z,12.84
2023-11-22T12:27:45.610Z,12.80
2023-11-22T12:30:37.211Z,12.71
2023-11-22T12:33:07.045Z,12.78
2023-11-22T12:35:35.914Z,12.66
2023-11-22T12:38:06.979Z,12.20
2023-11-22T12:40:34.939Z,12.31
2023-11-22T12:43:03.290Z,12.26
2023-11-22T12:45:35.158Z,11.93
2023-11-22T12:48:22.511Z,12.03
2023-11-22T12:50:50.748Z,12.35
2023-11-22T12:53:19.875Z,12.32
2023-11-22T12:55:52.603Z,12.39
2023-11-22T12:58:22.427Z,12.46
2023-11-22T13:00:55.488Z,12.75
2023-11-22T13:03:23.798Z,12.56
2023-11-22T13:05:53.398Z,12.61
2023-11-22T13:08:23.141Z,12.54
2023-11-22T13:10:55.882Z,12.49
2023-11-22T13:13:25.278Z,12.63
2023-11-22T13:15:53.882Z,12.74
2023-11-22T13:18:22.543Z,12.76
2023-11-22T13:20:51.633Z,12.49
2023-11-22T13:23:19.835Z,11.71
2023-11-22T13:25:48.054Z,11.36
2023-11-22T13:28:18.080Z,11.39
2023-11-22T13:30:46.364Z,11.43
2023-11-22T13:33:14.657Z,11.79
2023-11-22T13:35:42.704Z,11.93
2023-11-22T13:38:12.683Z,11.76
2023-11-22T13:40:42.095Z,11.60
2023-11-22T13:43:10.661Z,11.47
2023-11-22T13:45:41.026Z,11.39
2023-11-22T13:48:10.880Z,11.42
2023-11-22T13:50:39.764Z,11.01
2023-11-22T13:53:10.294Z,10.86
2023-11-22T13:55:38.242Z,10.86
2023-11-22T13:58:06.854Z,10.79
2023-11-22T14:00:36.106Z,10.81
2023-11-22T14:03:09.613Z,10.71
2023-11-22T14:05:39.967Z,10.60
2023-11-22T14:08:08.472Z,10.36
2023-11-22T14:10:36.443Z,10.17
2023-11-22T14:13:09.988Z,10.19
2023-11-22T14:15:38.828Z,9.94
2023-11-22T14:18:07.666Z,10.01
2023-11-22T14:20:36.640Z,10.25
2023-11-22T14:23:04.857Z,9.91
2023-11-22T14:25:33.127Z,9.79
2023-11-22T14:28:01.244Z,9.71
2023-11-22T14:30:31.775Z,10.06
2023-11-22T14:33:01.108Z,10.09
2023-11-22T14:35:29.844Z,10.14
2023-11-22T14:37:59.761Z,10.01
2023-11-22T14:40:28.539Z,9.58
2023-11-22T14:42:58.156Z,9.64
2023-11-22T14:45:27.891Z,9.26
2023-11-22T14:47:59.232Z,9.48
2023-11-22T14:50:29.424Z,9.58
2023-11-22T14:52:57.850Z,9.66
2023-11-22T14:55:27.397Z,9.59
2023-11-22T14:57:58.832Z,9.23
2023-11-22T15:00:27.520Z,9.29
2023-11-22T15:02:57.292Z,9.31
2023-11-22T15:05:28.210Z,9.36
2023-11-22T15:07:57.222Z,9.22
2023-11-22T15:10:26.773Z,9.07
2023-11-22T15:12:56.406Z,9.00
2023-11-22T15:15:26.257Z,8.93
2023-11-22T15:17:54.878Z,8.82
2023-11-22T15:20:23.345Z,8.80
2023-11-22T15:22:52.215Z,9.11
2023-11-22T15:25:20.816Z,8.93
2023-11-22T15:27:49.871Z,8.72
2023-11-22T15:30:20.156Z,8.47
2023-11-22T15:32:49.202Z,8.45
2023-11-22T15:35:17.477Z,8.52
2023-11-22T15:37:45.498Z,8.64
2023-11-22T15:40:14.068Z,8.52
2023-11-22T15:42:42.262Z,8.67
2023-11-22T15:45:10.858Z,8.51
2023-11-22T15:47:39.426Z,8.43
2023-11-22T15:50:08.745Z,8.42
2023-11-22T15:52:37.836Z,8.32
2023-11-22T15:55:06.548Z,8.22
2023-11-22T15:57:34.921Z,8.06
2023-11-22T16:00:05.674Z,7.77
2023-11-22T16:02:40.328Z,7.48
2023-11-22T16:05:11.832Z,7.68
2023-11-22T16:07:42.659Z,7.35
2023-11-22T16:10:11.568Z,7.18
2023-11-22T16:12:39.733Z,7.57
2023-11-22T16:15:08.226Z,7.65
2023-11-22T16:17:37.532Z,7.56
2023-11-22T16:20:12.198Z,7.71
2023-11-22T16:22:41.533Z,7.44
2023-11-22T16:25:10.042Z,7.57
2023-11-22T16:27:38.199Z,7.51
2023-11-22T16:30:09.944Z,7.00
2023-11-22T16:32:39.917Z,7.07
2023-11-22T16:35:08.392Z,7.19
2023-11-22T16:37:37.580Z,7.09
2023-11-22T16:40:09.344Z,7.01
2023-11-22T16:42:37.749Z,6.85
2023-11-22T16:45:07.307Z,6.29
2023-11-22T16:47:35.314Z,6.27
2023-11-22T16:50:06.151Z,6.42
2023-11-22T16:52:34.274Z,6.31
2023-11-22T16:55:04.681Z,6.81
2023-11-22T16:57:32.889Z,6.88
2023-11-22T17:00:05.964Z,6.91
2023-11-22T17:02:34.261Z,6.52
2023-11-22T17:05:02.501Z,6.63
2023-11-22T17:07:30.902Z,6.78
2023-11-22T17:09:59.633Z,6.82
2023-11-22T17:12:27.883Z,6.83
2023-11-22T17:14:55.945Z,6.78
2023-11-22T17:17:25.095Z,6.74
2023-11-22T17:19:53.209Z,6.74
2023-11-22T17:22:21.486Z,6.88
2023-11-22T17:24:50.108Z,6.78
2023-11-22T17:27:18.112Z,6.55
2023-11-22T17:29:46.338Z,6.47
2023-11-22T17:32:14.454Z,6.44
2023-11-22T17:34:42.448Z,6.72
2023-11-22T17:37:10.645Z,6.56
2023-11-22T17:39:38.697Z,6.49
2023-11-22T17:42:06.929Z,6.51
2023-11-22T17:44:34.981Z,6.52
2023-11-22T17:47:03.323Z,6.52
2023-11-22T17:49:31.342Z,6.42
2023-11-22T17:51:59.861Z,6.48
2023-11-22T17:54:27.825Z,6.46
2023-11-22T17:56:55.886Z,6.46
2023-11-22T17:59:23.863Z,6.39
2023-11-22T18:01:52.062Z,6.34
2023-11-22T18:04:20.140Z,6.32
2023-11-22T18:06:48.708Z,6.35
2023-11-22T18:09:21.512Z,6.42
2023-11-22T18:11:52.342Z,6.47
2023-11-22T18:14:20.887Z,6.30
2023-11-22T18:16:48.824Z,6.21
2023-11-22T18:19:16.861Z,6.20
2023-11-22T18:21:45.149Z,6.30
2023-11-22T18:24:13.608Z,6.06
2023-11-22T18:26:41.600Z,6.27
2023-11-22T18:29:09.547Z,6.27
2023-11-22T18:31:37.504Z,6.01
2023-11-22T18:34:07.520Z,5.98
2023-11-22T18:36:35.643Z,6.05
2023-11-22T18:39:05.808Z,6.21
2023-11-22T18:41:34.009Z,6.32
2023-11-22T18:44:02.520Z,6.27
2023-11-22T18:46:30.456Z,6.25
2023-11-22T18:48:58.462Z,5.90
2023-11-22T18:51:26.986Z,5.65
2023-11-22T18:53:54.968Z,5.64
2023-11-22T18:56:23.247Z,5.71
2023-11-22T18:58:51.304Z,6.09
2023-11-22T19:01:22.064Z,6.11
2023-11-22T19:03:50.334Z,6.08
2023-11-22T19:06:19.785Z,5.97
2023-11-22T19:08:47.932Z,5.85
2023-11-22T19:11:15.862Z,5.88
2023-11-22T19:13:44.840Z,5.89
2023-11-22T19:16:12.794Z,5.95
2023-11-22T19:18:41.033Z,5.84
2023-11-22T19:21:09.748Z,5.81
2023-11-22T19:23:38.701Z,5.66
2023-11-22T19:26:06.830Z,5.75
2023-11-22T19:28:34.894Z,5.65
2023-11-22T19:31:02.752Z,5.54
2023-11-22T19:33:31.093Z,5.55
2023-11-22T19:35:59.085Z,5.45
2023-11-22T19:38:29.736Z,5.49
2023-11-22T19:40:57.680Z,5.52
2023-11-22T19:43:25.732Z,5.52
2023-11-22T19:45:53.668Z,5.34
2023-11-22T19:48:21.839Z,5.31
2023-11-22T19:50:50.429Z,5.46
2023-11-22T19:53:18.704Z,5.37
2023-11-22T19:55:46.603Z,5.23
2023-11-22T19:58:15.420Z,5.21
2023-11-22T20:01:38.681Z,5.17
2023-11-22T20:04:21.770Z,5.05
2023-11-22T20:06:50.007Z,4.98
2023-11-22T20:09:18.101Z,4.88
2023-11-22T20:11:46.168Z,4.73
2023-11-22T20:14:14.255Z,4.73
2023-11-22T20:16:42.429Z,4.65
2023-11-22T20:19:10.322Z,4.66
2023-11-22T20:21:45.884Z,4.68
2023-11-22T20:24:15.261Z,4.59
2023-11-22T20:26:46.462Z,4.70
2023-11-22T20:29:16.136Z,4.50
2023-11-22T20:31:44.011Z,4.65
2023-11-22T20:34:11.932Z,4.41
2023-11-22T20:36:41.033Z,4.53
2023-11-22T20:39:10.284Z,4.53
2023-11-22T20:41:38.630Z,4.40
2023-11-22T20:44:09.092Z,4.23
2023-11-22T20:46:37.140Z,4.04
2023-11-22T20:49:05.021Z,4.32
2023-11-22T20:51:33.169Z,4.33
2023-11-22T20:54:01.480Z,4.32
2023-11-22T20:56:29.845Z,4.22
2023-11-22T20:58:57.908Z,4.08
2023-11-22T21:01:25.843Z,4.19
2023-11-22T21:03:53.762Z,4.21
2023-11-22T21:06:22.090Z,4.22
2023-11-22T21:08:50.059Z,4.22
2023-11-22T21:11:19.713Z,4.24
2023-11-22T21:13:47.654Z,4.37
2023-11-22T21:16:21.960Z,4.30
2023-11-22T21:18:51.882Z,4.22
2023-11-22T21:21:20.320Z,4.42
2023-11-22T21:23:49.850Z,4.29
2023-11-22T21:26:18.196Z,4.50
2023-11-22T21:28:46.093Z,4.55
2023-11-22T21:31:22.323Z,4.14
2023-11-22T21:33:51.441Z,4.21
2023-11-22T21:36:19.945Z,4.32
2023-11-22T21:38:47.982Z,4.37
2023-11-22T21:41:15.853Z,4.49
2023-11-22T21:43:44.368Z,4.44
2023-11-22T21:46:19.147Z,4.52
2023-11-22T21:48:47.466Z,4.38
2023-11-22T21:51:15.545Z,4.49
2023-11-22T21:53:43.584Z,4.44
2023-11-22T21:56:11.454Z,4.54
2023-11-22T21:58:39.661Z,4.52
2023-11-22T22:01:12.865Z,4.64
2023-11-22T22:03:44.629Z,4.62
2023-11-22T22:06:12.526Z,4.03
2023-11-22T22:08:42.878Z,4.51
2023-11-22T22:11:11.115Z,4.53
2023-11-22T22:13:38.978Z,4.36
2023-11-22T22:16:07.525Z,4.41
2023-11-22T22:18:35.528Z,4.45
2023-11-22T22:21:03.541Z,4.43
2023-11-22T22:23:33.711Z,4.25
2023-11-22T22:26:01.703Z,3.92
2023-11-22T22:28:30.402Z,4.10
2023-11-22T22:30:58.888Z,3.96
2023-11-22T22:33:26.938Z,4.02
2023-11-22T22:35:55.454Z,4.10
2023-11-22T22:38:23.555Z,4.05
2023-11-22T22:40:51.573Z,3.83
2023-11-22T22:43:19.509Z,3.80
2023-11-22T22:45:47.470Z,3.61
2023-11-22T22:48:15.738Z,3.61
2023-11-22T22:50:44.471Z,3.52
2023-11-22T22:53:12.790Z,3.47
2023-11-22T22:55:42.209Z,3.44
2023-11-22T22:58:10.145Z,3.38
2023-11-22T23:00:41.141Z,3.31
2023-11-22T23:03:09.648Z,3.53
2023-11-22T23:05:40.341Z,3.37
2023-11-22T23:08:10.328Z,3.38
2023-11-22T23:10:38.232Z,3.31
2023-11-22T23:13:06.968Z,3.22
2023-11-22T23:15:34.905Z,3.18
2023-11-22T23:18:03.797Z,3.33
2023-11-22T23:20:40.266Z,3.27
2023-11-22T23:23:14.334Z,3.38
2023-11-22T23:25:42.471Z,3.20
2023-11-22T23:28:10.926Z,3.21
2023-11-22T23:30:38.847Z,3.17
2023-11-22T23:33:08.086Z,3.18
2023-11-22T23:35:36.798Z,3.09
2023-11-22T23:38:07.416Z,3.21
2023-11-22T23:40:35.935Z,3.31
2023-11-22T23:43:05.320Z,3.28
2023-11-22T23:45:34.608Z,3.31
2023-11-22T23:48:03.802Z,3.16
2023-11-22T23:50:32.318Z,2.98
2023-11-22T23:53:00.271Z,2.87
2023-11-22T23:55:28.291Z,2.76
2023-11-22T23:57:56.468Z,2.77
